Search METAR Data

METAR Data for ENRO:

ENRO 241520Z 07003KT 010V120 9999 SCT040 03/M09 Q1006